My Meet Scores
Arianna Harris, Chicago Park Dist - MyMeetScores.com
Top100 | Top Teams | Upcoming Meets | Completed Meets | Latest | Add Scores | Help| Support | Bookmark and Share

Arianna Harris, Chicago Park Dist
Personal Bests
LevelVault BarsBeamFloorAA
39.5009.400 9.0509.17536.825
49.5008.600 9.2009.17536.375
XG9.6509.575 9.1259.07537.425
Scores on America's Top 100as of 01.26.2022
Year Level Vault Bars Beam Floor AA
2022 XG9.650

Click here to view our exclusive Top 100 Collection
Meet Scores
Date Meet Team Session Level Division Vault Bars Beam Floor AA
2022-01-21 UGA Invitational Chicago Park District B02 XG Jr A 9.650 1 9.575 2 9.125 3 9.075 10 37.425 2
2020-03-06 Illinois Level 4 State Championships Chicago Park Dist 5 4 Jr E 9.500 2T 8.500 21 9.200 14 9.175 8 36.375 9
2020-02-14 Midwest Open Chicago Park Dist 05B 4 Senior A 9.050 1 8.250 12T 8.800 9 8.850 6 34.950 8
2020-01-24 Uga Invitational Chicago Park Dist B2 4 Jr B 0.000 15 8.400 13 8.800 13 0.000 15 17.200 15
2019-03-22 Illinois Gymnastics State Championships Chicago Park Dist 6 4 YT C 8.800 16T 8.350 21T 8.225 25 8.975 18 34.350 24
2019-03-01 NGCD Academy's 2019 Flip'r Invitational Chicago Park Dist 10 4 Child B 8.375 12 8.250 13 8.700 8 8.750 10 34.075 11
2019-02-01 The Big Chill Chicago Park Dist 4 4 9 yr olds 8.600 5 8.600 9 8.650 5 9.000 3 34.850 5
2019-01-11 St Jude Benefit Meet Chicago Park Dist 5A 4 Jr C 9.050 2T 7.200 15T 8.400 12T 8.750 11T 33.400 13
2018-12-14 2018 Aspire Classic Chicago Park Dist 5A 4 Middle 9.100 10T 8.100 23T 9.075 16 8.950 14 35.225 18T
2018-02-09 IGI Chicago Style Gymnastics Meet Chicago Park Dist 50 4 233 Lake Shore Dr L4 A 8.850 5 8.000 11 8.525 10 8.400 9 33.775 10
2018-01-26 King Arthur Invitational Chicago Park Dist 2 4 Jr A 8.100 8 7.750 11T 8.050 13T 7.950 14 31.850 13
2017-12-15 2017 Aspire Classic Chicago Park Dist 6A 4 Younger 7.850 13 8.050 15 8.450 14T 8.900 8T 33.250 13
2017-12-01 Ultimate Wish Classic Chicago Park Dist 6 4 Jr B 7.550 16T 7.550 11 8.050 16 7.825 15 30.975 14
2017-03-30 2017 Illinois Level 3 & 5 State Chicago Park Dist All 3 Ch D 9.500 7T 9.100 17 9.050 10T 9.175 11 36.825 8T
2017-02-24 Kinetic Classic Chicago Park Dist 4,5,6,7 3 All Ages 9.050 64T 9.250 25T 8.300 93 8.750 75T 35.350 69T
2017-01-13 St Jude Benefit Meet Chicago Park Dist 7A 3 Jr A 8.925 6T 9.250 5 8.000 10 8.900 8 35.075 7
2016-12-16 2016 Aspire Classic Chicago Park Dist 10 3 Younger 9.000 8T 9.400 1 8.600 5 8.925 5 35.925 2
2016-12-02 Ultimate Wish Classic Chicago Park Dist 12 3 Child 8.450 19T 8.550 11 8.750 4 8.625 14 34.375 12
2016-02-12 IGI Chicago Style Gymnastics Meet Chicago Park Dist 211 3 JrA 8.150 20 7.900 15 7.600 15 7.800 17 31.450 17
2016-01-15 2016 Bravo Classic Chicago Park Dist 7A 3 6-7 yrs 8.600 12T 8.225 15 6.800 24 8.400 17T 32.025 22T
Get your scores on
a t-shirt, pin, or hoodie